Site contains unofficial IBTrACS data. Visit the IBTrACS Website to access archived data.

1923 NOT_NAMED (1923149N16112)


IBTrACS version v04r00. Visit IBTrACS website for data access.
Please direct all questions to the IBTrACS Q and A forum

Storm track - Intensity - Wind Radii - Intensity Data - Source Data - All data

Summary Information

Storm ID 1923149N16112
Start May 28 22Z
Landfall May 31 12Z
End May 31 22Z
ATCF IDs
Track status Best track data.

Storm track plot

Map of storm track

Intensity plots

No Intensity information for this storm


Radial wind information

No radial wind information for this storm


Position and Intensity Table

BASIN ISO_TIME_________ NATURE LAT LON
degrees north degrees east
WP 1923-05-28 22:00:00 NR 15.50 111.70
WP 1923-05-29 00:00:00 NR 15.49 111.68
WP 03:00:00 NR 15.49 111.63
WP 06:00:00 NR 15.49 111.56
WP 09:00:00 NR 15.50 111.45
WP 10:00:00 NR 15.50 111.40
WP 12:00:00 NR 15.51 111.28
WP 15:00:00 NR 15.54 111.08
WP 18:00:00 NR 15.57 110.86
WP 21:00:00 NR 15.59 110.66
WP 22:00:00 NR 15.60 110.60
WP 1923-05-30 00:00:00 NR 15.61 110.52
WP 03:00:00 NR 15.61 110.41
WP 06:00:00 NR 15.61 110.33
WP 09:00:00 NR 15.60 110.24
WP 10:00:00 NR 15.60 110.20
WP 12:00:00 NR 15.59 110.12
WP 15:00:00 NR 15.59 110.00
WP 18:00:00 NR 15.58 109.85
WP 21:00:00 NR 15.59 109.67
WP 22:00:00 NR 15.60 109.60
WP 1923-05-31 00:00:00 NR 15.62 109.44
WP 03:00:00 NR 15.67 109.17
WP 06:00:00 NR 15.72 108.88
WP 09:00:00 NR 15.78 108.59
WP 10:00:00 NR 15.80 108.50
WP 12:00:00 NR 15.84 108.33
WP 15:00:00 NR 15.89 108.09
WP 18:00:00 NR 15.94 107.87
WP 21:00:00 NR 15.98 107.67
WP 22:00:00 NR 16.00 107.60

Source Information

Agency Information
USA
TOKYO
CMA
HKO
NEWDELHI
REUNION
BOM
NADI
WELLINGTON
DS824
TD9636 cons_worldwide_trop_cyclone_18710101-19891231-003:Line=6841
TD9635
NEUMANN
MLC

All available IBTrACS Data

SEASON BASIN SUBBASIN ISO_TIME_________ NATURE LAT LON DIST2LAND LANDFALL IFLAG USA SSHS TD9636 LAT TD9636 LON TD9636 STAGE STORM SPEED STORM DIR
Year degrees north degrees east km km 1 degrees north degrees east kts degrees
1923 WP MM 1923-05-28 22:00:00 NR 15.50 111.70 293 293 __________O___ -1 15.50 111.70 4 1 0
1923 WP MM 1923-05-29 00:00:00 NR 15.49 111.68 293 283 __________P___ -1 15.49 111.68 4 1 260
1923 WP MM 03:00:00 NR 15.49 111.63 283 283 __________P___ -1 15.49 111.63 4 1 266
1923 WP MM 06:00:00 NR 15.49 111.56 283 262 __________P___ -1 15.49 111.56 4 2 272
1923 WP MM 09:00:00 NR 15.50 111.45 262 262 __________P___ -1 15.50 111.45 4 2 275
1923 WP MM 10:00:00 NR 15.50 111.40 262 252 __________O___ -1 15.50 111.40 4 3 277
1923 WP MM 12:00:00 NR 15.51 111.28 252 232 __________P___ -1 15.51 111.28 4 4 277
1923 WP MM 15:00:00 NR 15.54 111.08 232 217 __________P___ -1 15.54 111.08 4 4 278
1923 WP MM 18:00:00 NR 15.57 110.86 217 198 __________P___ -1 15.57 110.86 4 4 277
1923 WP MM 21:00:00 NR 15.59 110.66 198 187 __________P___ -1 15.59 110.66 4 4 277
1923 WP MM 22:00:00 NR 15.60 110.60 187 177 __________O___ -1 15.60 110.60 4 3 275
1923 WP MM 1923-05-30 00:00:00 NR 15.61 110.52 177 166 __________P___ -1 15.61 110.52 4 2 273
1923 WP MM 03:00:00 NR 15.61 110.41 166 156 __________P___ -1 15.61 110.41 4 2 270
1923 WP MM 06:00:00 NR 15.61 110.33 156 146 __________P___ -1 15.61 110.33 4 2 268
1923 WP MM 09:00:00 NR 15.60 110.24 146 146 __________P___ -1 15.60 110.24 4 2 268
1923 WP MM 10:00:00 NR 15.60 110.20 146 136 __________O___ -1 15.60 110.20 4 2 266
1923 WP MM 12:00:00 NR 15.59 110.12 136 126 __________P___ -1 15.59 110.12 4 2 266
1923 WP MM 15:00:00 NR 15.59 110.00 126 116 __________P___ -1 15.59 110.00 4 3 268
1923 WP MM 18:00:00 NR 15.58 109.85 116 96 __________P___ -1 15.58 109.85 4 3 271
1923 WP MM 21:00:00 NR 15.59 109.67 96 87 __________P___ -1 15.59 109.67 4 4 274
1923 WP MM 22:00:00 NR 15.60 109.60 87 69 __________O___ -1 15.60 109.60 4 4 277
1923 WP MM 1923-05-31 00:00:00 NR 15.62 109.44 69 61 __________P___ -1 15.62 109.44 4 5 279
1923 WP MM 03:00:00 NR 15.67 109.17 61 39 __________P___ -1 15.67 109.17 4 6 281
1923 WP MM 06:00:00 NR 15.72 108.88 39 21 __________P___ -1 15.72 108.88 4 6 282
1923 WP MM 09:00:00 NR 15.78 108.59 21 10 __________P___ -1 15.78 108.59 4 6 282
1923 WP MM 10:00:00 NR 15.80 108.50 10 0 __________O___ -1 15.80 108.50 4 5 282
1923 WP MM 12:00:00 NR 15.84 108.33 0 0 __________P___ -1 15.84 108.33 4 5 283
1923 WP MM 15:00:00 NR 15.89 108.09 0 0 __________P___ -1 15.89 108.09 4 4 283
1923 WP MM 18:00:00 NR 15.94 107.87 0 0 __________P___ -1 15.94 107.87 4 4 283
1923 WP MM 21:00:00 NR 15.98 107.67 0 0 __________P___ -1 15.98 107.67 4 4 283
1923 WP MM 22:00:00 NR 16.00 107.60 0 __________O___ -1 16.00 107.60 7 4 283